Time;durP1;ratioP1;P1;durP2;ratioP2;P2;SDS_P1;SDS_P2;PMS_P1;PMS_P2;Temp;Humidity;BMP_temperature;BMP_pressure;BME280_temperature;BME280_humidity;BME280_pressure;Samples;Min_cycle;Max_cycle;Signal;HPM_P1;HPM_P2
2023/01/06 00:02:00;;;;;;;10.43;5.27;;;8.50;99.90;;;;;;4994535;28;20180;-76
2023/01/06 00:04:25;;;;;;;9.83;5.13;;;8.50;99.90;;;;;;4994411;28;20226;-76
2023/01/06 00:06:51;;;;;;;12.90;5.67;;;8.50;99.90;;;;;;4994649;28;20212;-76
2023/01/06 00:09:17;;;;;;;12.07;5.57;;;8.50;99.90;;;;;;4989918;28;20181;-75
2023/01/06 00:11:42;;;;;;;10.90;5.87;;;8.60;99.90;;;;;;4999285;28;20235;-76
2023/01/06 00:14:08;;;;;;;9.00;5.63;;;8.60;99.90;;;;;;4992515;28;20180;-76
2023/01/06 00:16:35;;;;;;;8.60;5.03;;;8.60;99.90;;;;;;4992239;28;20736;-77
2023/01/06 00:19:01;;;;;;;10.77;5.57;;;8.60;99.90;;;;;;4981868;28;20224;-75
2023/01/06 00:21:27;;;;;;;8.97;5.50;;;8.60;99.90;;;;;;5001139;28;20239;-76
2023/01/06 00:23:53;;;;;;;11.17;6.27;;;8.60;99.90;;;;;;4982886;28;20529;-75
2023/01/06 00:26:19;;;;;;;9.33;5.27;;;8.60;99.90;;;;;;4992123;28;20205;-76
2023/01/06 00:28:44;;;;;;;12.60;5.73;;;8.60;99.90;;;;;;4975076;28;20549;-76
2023/01/06 00:31:12;;;;;;;10.57;5.37;;;8.60;99.90;;;;;;4992517;28;20168;-78
2023/01/06 00:33:38;;;;;;;11.90;5.03;;;8.60;99.90;;;;;;4996226;28;20179;-76
2023/01/06 00:36:05;;;;;;;6.00;4.50;;;8.60;99.90;;;;;;4996262;28;20244;-78
2023/01/06 00:38:31;;;;;;;6.40;4.60;;;8.60;99.90;;;;;;4996059;28;20204;-76
2023/01/06 00:40:57;;;;;;;8.93;4.90;;;8.70;99.90;;;;;;4978299;28;20237;-76
2023/01/06 00:43:22;;;;;;;8.27;3.97;;;8.60;99.90;;;;;;4997515;28;20188;-76
2023/01/06 00:45:48;;;;;;;8.20;4.30;;;8.60;99.90;;;;;;4984123;28;20214;-76
2023/01/06 00:48:13;;;;;;;8.83;4.20;;;8.70;99.90;;;;;;4981428;28;20203;-76
2023/01/06 00:50:39;;;;;;;6.57;3.30;;;8.70;99.90;;;;;;4995765;28;20209;-75
2023/01/06 00:53:04;;;;;;;5.37;3.47;;;8.70;99.90;;;;;;4978278;28;20544;-76
2023/01/06 00:57:58;;;;;;;7.20;4.70;;;8.70;99.90;;;;;;4992669;28;20213;-77
2023/01/06 01:00:23;;;;;;;5.50;4.10;;;8.70;99.90;;;;;;4969605;28;20174;-78
2023/01/06 01:02:49;;;;;;;6.20;4.50;;;8.80;99.90;;;;;;4972728;28;20180;-80
2023/01/06 01:05:15;;;;;;;8.23;5.20;;;8.80;99.90;;;;;;4993422;28;20333;-79
2023/01/06 01:07:40;;;;;;;8.60;5.80;;;8.80;99.90;;;;;;4983511;28;20211;-80
2023/01/06 01:10:07;;;;;;;8.10;6.03;;;8.80;99.90;;;;;;5000744;28;20221;-79
2023/01/06 01:12:32;;;;;;;9.33;6.07;;;8.90;99.90;;;;;;4983314;28;20179;-80
2023/01/06 01:14:58;;;;;;;9.33;6.63;;;8.90;99.90;;;;;;4975300;28;20277;-80
2023/01/06 01:17:26;;;;;;;10.13;7.00;;;8.80;99.90;;;;;;4998006;28;20210;-79
2023/01/06 01:19:54;;;;;;;13.87;7.53;;;8.80;99.90;;;;;;4977131;28;20181;-83
2023/01/06 01:22:21;;;;;;;12.80;7.53;;;8.90;99.90;;;;;;5001074;28;20181;-80
2023/01/06 01:24:46;;;;;;;13.17;7.63;;;8.90;99.90;;;;;;5000302;28;20224;-81
2023/01/06 01:27:12;;;;;;;12.47;8.07;;;8.90;99.90;;;;;;4983036;28;20234;-79
2023/01/06 01:29:38;;;;;;;12.20;7.80;;;8.80;99.90;;;;;;4982662;28;20179;-80
2023/01/06 01:32:04;;;;;;;12.70;7.80;;;8.90;99.90;;;;;;4982410;28;20194;-79
2023/01/06 01:34:30;;;;;;;12.77;8.30;;;8.90;99.90;;;;;;4982896;28;20179;-80
2023/01/06 01:36:55;;;;;;;13.37;7.67;;;8.90;99.90;;;;;;5000622;28;20285;-80
2023/01/06 01:39:24;;;;;;;12.90;7.87;;;8.90;99.90;;;;;;4999520;28;20591;-81
2023/01/06 01:41:50;;;;;;;11.53;7.60;;;8.90;99.90;;;;;;4982425;28;20188;-80
2023/01/06 01:44:53;;;;;;;14.50;8.27;;;8.90;99.90;;;;;;4999755;28;20205;-79
2023/01/06 01:47:27;;;;;;;13.07;7.73;;;8.90;99.90;;;;;;4974446;28;20208;-83
2023/01/06 01:49:57;;;;;;;13.73;7.73;;;8.90;99.90;;;;;;5000238;28;20178;-80
2023/01/06 01:52:24;;;;;;;13.10;8.03;;;8.90;99.90;;;;;;5000278;28;20176;-80
2023/01/06 01:54:52;;;;;;;11.87;8.07;;;8.90;99.90;;;;;;4982937;28;20203;-79
2023/01/06 01:57:30;;;;;;;14.57;8.87;;;8.90;99.90;;;;;;4982658;28;20228;-82
2023/01/06 01:59:56;;;;;;;12.57;8.17;;;8.90;99.90;;;;;;4982213;28;20209;-81
2023/01/06 02:02:23;;;;;;;13.90;9.27;;;8.90;99.90;;;;;;5000046;28;20174;-80
2023/01/06 02:04:53;;;;;;;14.17;8.40;;;8.90;99.90;;;;;;4999830;28;20182;-79
2023/01/06 02:07:20;;;;;;;13.27;8.53;;;9.00;99.90;;;;;;4982149;28;20218;-79
2023/01/06 02:10:11;;;;;;;12.13;7.80;;;9.00;99.90;;;;;;4999840;28;20178;-83
2023/01/06 02:12:38;;;;;;;11.87;8.03;;;9.00;99.90;;;;;;5000344;28;20185;-80
2023/01/06 02:15:20;;;;;;;10.17;7.30;;;9.00;99.90;;;;;;4982792;28;20177;-79
2023/01/06 02:18:21;;;;;;;8.33;6.30;;;9.00;99.90;;;;;;4982256;28;20204;-80
2023/01/06 02:21:05;;;;;;;9.23;6.13;;;9.00;99.90;;;;;;4976539;28;20188;-80
2023/01/06 02:23:58;;;;;;;7.40;5.80;;;9.10;99.90;;;;;;4974053;28;20171;-83
2023/01/06 02:26:27;;;;;;;7.07;5.97;;;9.10;99.90;;;;;;4999370;28;20214;-80
2023/01/06 02:29:05;;;;;;;8.97;6.23;;;9.10;99.90;;;;;;4999482;28;20178;-79
2023/01/06 02:32:01;;;;;;;9.43;6.30;;;9.10;99.90;;;;;;4998913;28;20253;-80
2023/01/06 02:34:32;;;;;;;10.53;7.20;;;9.10;99.90;;;;;;4998899;28;20165;-80
2023/01/06 02:37:13;;;;;;;12.60;7.60;;;9.20;99.90;;;;;;4981029;28;20198;-80
2023/01/06 02:39:47;;;;;;;12.57;7.97;;;9.10;99.90;;;;;;4998989;28;20183;-80
2023/01/06 02:42:27;;;;;;;10.20;7.13;;;9.10;99.90;;;;;;4981423;28;20179;-79
2023/01/06 02:45:02;;;;;;;10.50;6.87;;;9.20;99.90;;;;;;4998998;28;20309;-80
2023/01/06 02:47:39;;;;;;;9.70;6.20;;;9.20;99.90;;;;;;4981068;28;20214;-80
2023/01/06 02:50:20;;;;;;;8.73;6.10;;;9.20;99.90;;;;;;4980670;28;20182;-79
2023/01/06 02:52:52;;;;;;;7.30;5.63;;;9.20;99.90;;;;;;4980668;28;20204;-81
2023/01/06 02:55:25;;;;;;;5.90;5.20;;;9.20;99.90;;;;;;4971653;28;20180;-80
2023/01/06 02:58:32;;;;;;;7.00;5.13;;;9.20;99.90;;;;;;4997882;28;20195;-80
2023/01/06 03:01:13;;;;;;;6.00;4.43;;;9.20;99.90;;;;;;4998028;28;20182;-80
2023/01/06 03:03:43;;;;;;;6.37;4.60;;;9.20;99.90;;;;;;4997690;28;20201;-80
2023/01/06 03:06:14;;;;;;;5.00;4.23;;;9.20;99.90;;;;;;4998126;28;20582;-79
2023/01/06 03:08:42;;;;;;;5.77;4.63;;;9.30;99.90;;;;;;4980381;28;20526;-80
2023/01/06 03:11:08;;;;;;;6.97;4.40;;;9.30;99.90;;;;;;4980833;28;20179;-80
2023/01/06 03:13:54;;;;;;;5.87;4.37;;;9.30;99.90;;;;;;4980464;28;20273;-79
2023/01/06 03:16:20;;;;;;;5.63;4.10;;;9.30;99.90;;;;;;4998493;28;20728;-80
2023/01/06 03:18:49;;;;;;;6.20;4.40;;;9.30;99.90;;;;;;4980567;28;20220;-80
2023/01/06 03:21:28;;;;;;;6.80;4.73;;;9.30;99.90;;;;;;4980418;28;20180;-82
2023/01/06 03:23:54;;;;;;;6.13;4.80;;;9.30;99.90;;;;;;4980666;28;20189;-80
2023/01/06 03:26:20;;;;;;;5.90;4.93;;;9.30;99.90;;;;;;4998204;28;20263;-80
2023/01/06 03:28:46;;;;;;;7.40;4.97;;;9.30;99.90;;;;;;4997475;28;20238;-80
2023/01/06 03:31:44;;;;;;;5.87;5.27;;;9.30;99.90;;;;;;4997483;28;20179;-83
2023/01/06 03:34:27;;;;;;;7.17;5.30;;;9.30;99.90;;;;;;4979805;28;20187;-82
2023/01/06 03:37:40;;;;;;;6.87;5.30;;;9.30;99.90;;;;;;4989279;28;20897;-80
2023/01/06 03:40:36;;;;;;;6.37;5.13;;;9.30;99.90;;;;;;4944342;28;20187;-81
2023/01/06 03:43:22;;;;;;;6.37;5.13;;;9.30;99.90;;;;;;4961309;28;20190;-80
2023/01/06 03:46:18;;;;;;;6.57;5.23;;;9.30;99.90;;;;;;4978122;28;20210;-81
2023/01/06 03:49:02;;;;;;;6.20;5.33;;;9.40;99.90;;;;;;4960953;28;20654;-80
2023/01/06 03:51:52;;;;;;;8.17;5.27;;;9.30;99.90;;;;;;4977947;28;20266;-82
2023/01/06 03:54:40;;;;;;;6.33;5.47;;;9.30;99.90;;;;;;4969904;28;20187;-83
2023/01/06 03:57:19;;;;;;;7.07;5.57;;;9.30;99.90;;;;;;4997111;28;20297;-80
2023/01/06 04:00:08;;;;;;;7.00;5.67;;;9.30;99.90;;;;;;4979583;28;20168;-80
2023/01/06 04:02:37;;;;;;;6.33;5.63;;;9.30;99.90;;;;;;4971758;28;20212;-80
2023/01/06 04:05:05;;;;;;;7.23;6.13;;;9.30;99.90;;;;;;4979613;28;20273;-80
2023/01/06 04:07:31;;;;;;;7.73;5.57;;;9.30;99.90;;;;;;4981498;28;20203;-80
2023/01/06 04:09:57;;;;;;;6.37;5.20;;;9.30;99.90;;;;;;4983204;28;20178;-80
2023/01/06 04:12:37;;;;;;;7.03;5.93;;;9.30;99.90;;;;;;5001099;28;20219;-80
2023/01/06 04:15:10;;;;;;;6.47;5.27;;;9.30;99.90;;;;;;4983811;28;20177;-81
2023/01/06 04:17:36;;;;;;;6.23;4.77;;;9.30;99.90;;;;;;5000806;28;20187;-80
2023/01/06 04:20:03;;;;;;;6.17;4.90;;;9.30;99.90;;;;;;4983501;28;20175;-80
2023/01/06 04:22:28;;;;;;;6.63;4.80;;;9.30;99.90;;;;;;5001328;28;20178;-80
2023/01/06 04:24:54;;;;;;;5.87;4.37;;;9.30;99.90;;;;;;5001033;28;20265;-80
2023/01/06 04:27:20;;;;;;;5.43;4.40;;;9.40;99.90;;;;;;4983577;28;20212;-81
2023/01/06 04:29:45;;;;;;;5.23;4.40;;;9.30;99.90;;;;;;4983118;28;20175;-80
2023/01/06 04:32:11;;;;;;;5.87;4.33;;;9.30;99.90;;;;;;4983127;28;20187;-80
2023/01/06 04:34:36;;;;;;;3.80;3.43;;;9.40;99.90;;;;;;4983279;28;20184;-80
2023/01/06 04:37:02;;;;;;;4.23;3.60;;;9.40;99.90;;;;;;4983231;28;20203;-83
2023/01/06 04:39:27;;;;;;;3.50;3.20;;;9.40;99.90;;;;;;4983001;28;20198;-80
2023/01/06 04:41:53;;;;;;;3.37;3.07;;;9.40;99.90;;;;;;5001245;28;20553;-80
2023/01/06 04:44:18;;;;;;;3.20;2.90;;;9.40;99.90;;;;;;5000635;28;20551;-80
2023/01/06 04:46:44;;;;;;;3.03;2.73;;;9.50;99.90;;;;;;4982721;28;20203;-80
2023/01/06 04:49:09;;;;;;;3.30;2.90;;;9.50;99.90;;;;;;5000220;28;20168;-81
2023/01/06 04:51:35;;;;;;;3.63;3.20;;;9.50;99.90;;;;;;4996763;28;20185;-80
2023/01/06 04:54:01;;;;;;;4.13;3.20;;;9.60;99.90;;;;;;4978245;28;20212;-82
2023/01/06 04:56:26;;;;;;;2.73;1.90;;;9.60;99.90;;;;;;4999899;28;20215;-80
2023/01/06 04:58:54;;;;;;;1.70;1.60;;;9.60;99.90;;;;;;5000632;28;20247;-80
2023/01/06 05:01:20;;;;;;;2.23;1.80;;;9.60;99.90;;;;;;5000465;28;20203;-79
2023/01/06 05:03:46;;;;;;;2.13;1.60;;;9.60;99.90;;;;;;4999820;28;20187;-80
2023/01/06 05:06:13;;;;;;;2.40;1.50;;;9.50;99.90;;;;;;4982681;28;20211;-80
2023/01/06 05:08:40;;;;;;;1.40;1.20;;;9.50;99.90;;;;;;5000312;28;20642;-80
2023/01/06 05:11:11;;;;;;;1.50;1.20;;;9.60;99.90;;;;;;5000380;28;20178;-80
2023/01/06 05:13:37;;;;;;;1.37;1.10;;;9.50;99.90;;;;;;4983180;28;20206;-80
2023/01/06 05:16:12;;;;;;;0.87;0.87;;;9.50;99.90;;;;;;4982187;28;20195;-80
2023/01/06 05:18:38;;;;;;;0.77;0.77;;;9.50;99.90;;;;;;4981840;28;20182;-80
2023/01/06 05:21:04;;;;;;;1.50;0.70;;;9.50;99.90;;;;;;4999783;28;20179;-80
2023/01/06 05:23:29;;;;;;;1.20;0.90;;;9.50;99.90;;;;;;4982764;28;20176;-80
2023/01/06 05:25:55;;;;;;;1.10;1.00;;;9.40;99.90;;;;;;4982352;28;20206;-80
2023/01/06 05:28:21;;;;;;;1.30;1.00;;;9.40;99.90;;;;;;4982038;28;20180;-80
2023/01/06 05:30:46;;;;;;;0.80;0.80;;;9.40;99.90;;;;;;4982512;28;20186;-81
2023/01/06 05:33:12;;;;;;;0.70;0.70;;;9.40;99.90;;;;;;4982415;28;20179;-80
2023/01/06 05:35:37;;;;;;;1.43;1.00;;;9.40;99.90;;;;;;4982110;28;20266;-80
2023/01/06 05:38:03;;;;;;;1.00;0.90;;;9.30;99.90;;;;;;4999759;28;20667;-80
2023/01/06 05:40:29;;;;;;;1.10;1.00;;;9.30;99.90;;;;;;4982519;28;20279;-83
2023/01/06 05:42:56;;;;;;;1.57;1.40;;;9.30;99.90;;;;;;4982180;28;20182;-83
2023/01/06 05:45:23;;;;;;;1.63;1.53;;;9.20;99.90;;;;;;5000189;28;20187;-80
2023/01/06 05:47:48;;;;;;;2.13;1.33;;;9.30;99.90;;;;;;4999577;28;20302;-82
2023/01/06 05:50:14;;;;;;;1.33;1.23;;;9.20;99.90;;;;;;4980458;28;20627;-81
2023/01/06 05:52:39;;;;;;;1.50;1.40;;;9.30;99.90;;;;;;4998672;28;20180;-80
2023/01/06 05:55:05;;;;;;;1.40;1.30;;;9.30;99.90;;;;;;4999880;28;20210;-83
2023/01/06 05:57:32;;;;;;;1.67;1.30;;;9.20;99.90;;;;;;4981309;28;20581;-81
2023/01/06 05:59:58;;;;;;;1.10;1.00;;;9.20;99.90;;;;;;4998637;28;20617;-79
2023/01/06 06:02:24;;;;;;;1.30;1.20;;;9.30;99.90;;;;;;4981429;28;20210;-79
2023/01/06 06:04:50;;;;;;;1.77;1.30;;;9.30;99.90;;;;;;4980749;28;20207;-81
2023/01/06 06:07:15;;;;;;;1.53;1.30;;;9.40;99.90;;;;;;4997248;28;20224;-81
2023/01/06 06:09:41;;;;;;;1.50;1.40;;;9.40;99.90;;;;;;4997330;28;20376;-79
2023/01/06 06:12:07;;;;;;;1.17;1.07;;;9.40;99.90;;;;;;4980509;28;20181;-80
2023/01/06 06:14:32;;;;;;;1.30;1.20;;;9.50;99.90;;;;;;4998642;28;20179;-80
2023/01/06 06:16:58;;;;;;;1.60;1.20;;;9.50;99.90;;;;;;4998057;28;20205;-82
2023/01/06 06:19:23;;;;;;;1.20;1.10;;;9.40;99.90;;;;;;4997112;28;20194;-80
2023/01/06 06:21:49;;;;;;;1.30;1.20;;;9.40;99.90;;;;;;4996901;28;20215;-80
2023/01/06 06:24:15;;;;;;;1.10;1.00;;;9.40;99.90;;;;;;4979683;28;20180;-80
2023/01/06 06:26:40;;;;;;;1.20;1.10;;;9.40;99.90;;;;;;4979879;28;20734;-83
2023/01/06 06:29:07;;;;;;;0.90;0.90;;;9.40;99.90;;;;;;4997083;28;20254;-80
2023/01/06 06:31:32;;;;;;;1.53;1.00;;;9.40;99.90;;;;;;4997154;28;20185;-80
2023/01/06 06:34:01;;;;;;;1.10;1.00;;;9.30;99.90;;;;;;4979251;28;20176;-80
2023/01/06 06:36:27;;;;;;;2.07;1.07;;;9.30;99.90;;;;;;4978977;28;20196;-80
2023/01/06 06:38:54;;;;;;;1.00;0.90;;;9.20;99.90;;;;;;4996630;28;20179;-81
2023/01/06 06:41:20;;;;;;;1.03;0.90;;;9.20;99.90;;;;;;4995447;28;20179;-81
2023/01/06 06:43:48;;;;;;;2.40;1.00;;;9.20;99.90;;;;;;4996868;28;20179;-79
2023/01/06 06:46:14;;;;;;;1.30;0.70;;;9.20;99.90;;;;;;4994653;28;20202;-80
2023/01/06 06:48:39;;;;;;;1.60;0.90;;;9.20;99.90;;;;;;4977754;28;20227;-80
2023/01/06 06:51:11;;;;;;;1.10;1.00;;;9.10;99.90;;;;;;4977328;28;20179;-79
2023/01/06 06:53:37;;;;;;;1.47;0.80;;;9.10;99.90;;;;;;4976850;28;20669;-78
2023/01/06 06:56:04;;;;;;;1.00;0.70;;;9.10;99.90;;;;;;4995579;28;20214;-80
2023/01/06 06:58:30;;;;;;;1.73;0.80;;;9.10;99.90;;;;;;4988106;28;20183;-80
2023/01/06 07:00:56;;;;;;;1.20;1.10;;;9.00;99.90;;;;;;4989190;28;20186;-80
2023/01/06 07:03:22;;;;;;;0.70;0.70;;;9.00;99.90;;;;;;4969338;28;20179;-80
2023/01/06 07:05:49;;;;;;;0.83;0.83;;;9.00;99.90;;;;;;4995155;28;20616;-79
2023/01/06 07:08:15;;;;;;;0.70;0.70;;;8.90;99.90;;;;;;4969851;28;20600;-80
2023/01/06 07:10:41;;;;;;;0.80;0.80;;;8.90;99.90;;;;;;4975909;28;20257;-81
2023/01/06 07:13:06;;;;;;;0.80;0.80;;;8.90;99.90;;;;;;4981447;28;20182;-80
2023/01/06 07:15:32;;;;;;;2.73;0.90;;;8.90;99.90;;;;;;4987090;28;20182;-79
2023/01/06 07:18:02;;;;;;;0.90;0.70;;;8.90;99.90;;;;;;4977936;28;20185;-80
2023/01/06 07:20:30;;;;;;;0.83;0.83;;;8.90;99.90;;;;;;4995274;28;20214;-80
2023/01/06 07:22:55;;;;;;;1.23;1.13;;;8.80;99.90;;;;;;4977488;28;20183;-80
2023/01/06 07:25:21;;;;;;;1.13;1.03;;;8.80;99.90;;;;;;4977688;28;20188;-80
2023/01/06 07:27:51;;;;;;;1.10;1.00;;;8.90;99.90;;;;;;4977479;28;20238;-79
2023/01/06 07:30:17;;;;;;;2.63;2.00;;;9.00;99.90;;;;;;4977383;28;20260;-80
2023/01/06 07:32:42;;;;;;;2.33;2.13;;;9.00;99.90;;;;;;4978141;28;20597;-79
2023/01/06 07:35:08;;;;;;;1.23;1.03;;;9.00;99.90;;;;;;4977989;28;20171;-80
2023/01/06 07:37:34;;;;;;;1.50;1.00;;;8.90;99.90;;;;;;4977717;28;20302;-80
2023/01/06 07:39:59;;;;;;;1.17;1.07;;;8.90;99.90;;;;;;4978217;28;20525;-81
2023/01/06 07:42:25;;;;;;;2.50;1.30;;;9.00;99.90;;;;;;4969996;28;20182;-80
2023/01/06 07:44:50;;;;;;;1.83;1.23;;;8.90;99.90;;;;;;4978157;28;20527;-80
2023/01/06 07:47:16;;;;;;;1.90;1.70;;;8.90;99.90;;;;;;4995380;28;20721;-79
2023/01/06 07:49:41;;;;;;;2.40;1.60;;;8.90;99.90;;;;;;4992909;28;20206;-79
2023/01/06 07:52:07;;;;;;;1.63;1.37;;;8.90;99.90;;;;;;4976372;28;20209;-79
2023/01/06 07:54:32;;;;;;;1.47;1.30;;;8.90;99.90;;;;;;4979805;28;20207;-80
2023/01/06 07:56:58;;;;;;;1.63;1.53;;;8.90;99.90;;;;;;4997709;28;20297;-79
2023/01/06 07:59:23;;;;;;;1.60;1.50;;;8.90;99.90;;;;;;4972183;28;20182;-79
2023/01/06 08:01:49;;;;;;;1.13;1.03;;;8.90;99.90;;;;;;4966213;28;20175;-80
2023/01/06 08:04:15;;;;;;;2.60;2.20;;;8.90;99.90;;;;;;4978444;28;20178;-79
2023/01/06 08:06:40;;;;;;;2.97;1.70;;;8.90;99.90;;;;;;4960801;28;20217;-79
2023/01/06 08:09:07;;;;;;;2.00;1.40;;;8.90;99.90;;;;;;4978609;28;20561;-79
2023/01/06 08:11:32;;;;;;;1.50;1.00;;;9.00;99.90;;;;;;4960608;28;20180;-79
2023/01/06 08:13:58;;;;;;;1.90;1.50;;;9.00;99.90;;;;;;4972327;28;20188;-79
2023/01/06 08:16:23;;;;;;;1.87;1.40;;;9.00;99.90;;;;;;4974860;28;20207;-81
2023/01/06 08:18:49;;;;;;;1.67;1.23;;;9.00;99.90;;;;;;4984537;28;20189;-79
2023/01/06 08:21:14;;;;;;;2.43;2.10;;;9.00;99.90;;;;;;4973922;28;20190;-79
2023/01/06 08:23:40;;;;;;;1.20;1.10;;;8.90;99.90;;;;;;4971490;28;20209;-80
2023/01/06 08:26:14;;;;;;;1.70;1.20;;;8.90;99.90;;;;;;4995200;28;20229;-80
2023/01/06 08:28:41;;;;;;;4.53;3.80;;;8.90;99.90;;;;;;4977487;28;20180;-80
2023/01/06 08:31:15;;;;;;;1.60;1.50;;;8.90;99.90;;;;;;4995098;28;20174;-80
2023/01/06 08:33:41;;;;;;;3.57;2.70;;;8.90;99.90;;;;;;4977553;28;20662;-80
2023/01/06 08:36:10;;;;;;;2.53;1.90;;;8.90;99.90;;;;;;4977653;28;20191;-80
2023/01/06 08:38:36;;;;;;;2.37;1.97;;;8.90;99.90;;;;;;4977740;28;20655;-82
2023/01/06 08:41:02;;;;;;;2.37;2.17;;;8.90;99.90;;;;;;4977054;28;20169;-80
2023/01/06 08:43:28;;;;;;;3.47;2.03;;;8.90;99.90;;;;;;4995189;28;20175;-81
2023/01/06 08:45:59;;;;;;;2.50;1.80;;;8.80;99.90;;;;;;4995154;28;20197;-82
2023/01/06 08:48:25;;;;;;;1.83;1.47;;;8.80;99.90;;;;;;4995979;28;20646;-80
2023/01/06 08:50:51;;;;;;;2.03;1.80;;;8.80;99.90;;;;;;4993516;28;20178;-79
2023/01/06 08:53:16;;;;;;;1.40;1.20;;;8.80;99.90;;;;;;4994172;28;20188;-82
2023/01/06 08:55:42;;;;;;;2.00;1.80;;;8.80;99.90;;;;;;4969871;28;20197;-80
2023/01/06 08:58:09;;;;;;;1.70;1.60;;;8.80;99.90;;;;;;4980983;28;20186;-80
2023/01/06 09:00:38;;;;;;;3.63;1.90;;;8.80;99.90;;;;;;4998252;28;20209;-80
2023/01/06 09:03:04;;;;;;;2.60;1.30;;;8.80;99.90;;;;;;4981118;28;20176;-80
2023/01/06 09:05:29;;;;;;;3.53;2.00;;;8.90;99.90;;;;;;4998802;28;20180;-81
2023/01/06 09:07:55;;;;;;;2.00;1.80;;;8.90;99.90;;;;;;4981404;28;20196;-82
2023/01/06 09:10:20;;;;;;;7.30;5.53;;;8.90;99.90;;;;;;4981459;28;20179;-80
2023/01/06 09:12:47;;;;;;;2.30;1.90;;;8.90;99.90;;;;;;4998577;28;20183;-80
2023/01/06 09:15:13;;;;;;;1.63;1.40;;;8.90;99.90;;;;;;4990307;28;20179;-80
2023/01/06 09:17:38;;;;;;;2.87;2.40;;;8.90;99.90;;;;;;4979979;28;20202;-80
2023/01/06 09:20:04;;;;;;;4.93;4.37;;;8.90;99.90;;;;;;4998233;28;20199;-80
2023/01/06 09:22:30;;;;;;;4.13;2.83;;;8.90;99.90;;;;;;4981122;28;20280;-78
2023/01/06 09:24:56;;;;;;;7.83;5.50;;;8.90;99.90;;;;;;4986262;28;20221;-81
2023/01/06 09:27:22;;;;;;;2.10;1.70;;;8.90;99.90;;;;;;4998968;28;20206;-80
2023/01/06 09:29:48;;;;;;;5.23;3.43;;;8.90;99.90;;;;;;5000478;28;20178;-80
2023/01/06 09:32:13;;;;;;;3.80;2.47;;;8.90;99.90;;;;;;5000241;28;20179;-80
2023/01/06 09:34:39;;;;;;;1.70;1.20;;;8.90;99.90;;;;;;4980727;28;20214;-80
2023/01/06 09:37:05;;;;;;;2.67;1.37;;;8.90;99.90;;;;;;4978329;28;20212;-80
2023/01/06 09:39:30;;;;;;;1.63;1.30;;;8.90;99.90;;;;;;4995397;28;20178;-80
2023/01/06 09:42:05;;;;;;;1.30;1.13;;;8.90;99.90;;;;;;4998333;28;20186;-80
2023/01/06 09:44:34;;;;;;;1.53;1.10;;;8.90;99.90;;;;;;4981118;28;20223;-81
2023/01/06 09:47:01;;;;;;;1.53;1.10;;;8.90;99.90;;;;;;4980732;28;20234;-80
2023/01/06 09:49:46;;;;;;;1.80;1.10;;;9.00;99.90;;;;;;4981585;28;20187;-80
2023/01/06 09:52:33;;;;;;;2.40;1.20;;;9.00;99.90;;;;;;4998480;28;20159;-80
2023/01/06 09:55:07;;;;;;;1.40;1.20;;;9.00;99.90;;;;;;4997338;28;20193;-80
2023/01/06 09:57:45;;;;;;;1.87;1.40;;;9.00;99.90;;;;;;4981297;28;20218;-80
2023/01/06 10:00:35;;;;;;;1.63;1.40;;;9.00;99.90;;;;;;4999222;28;20177;-80
2023/01/06 10:03:01;;;;;;;1.53;1.30;;;9.00;99.90;;;;;;4999086;28;20191;-80
2023/01/06 10:05:43;;;;;;;2.00;1.30;;;9.00;99.90;;;;;;4980104;28;20244;-80
2023/01/06 10:08:44;;;;;;;1.60;1.30;;;9.00;99.90;;;;;;4998993;28;20202;-80
2023/01/06 10:11:14;;;;;;;1.50;1.30;;;9.00;99.90;;;;;;4991512;28;20186;-80
2023/01/06 10:14:07;;;;;;;1.93;1.30;;;9.00;99.90;;;;;;4996368;28;20553;-80
2023/01/06 10:16:57;;;;;;;2.53;1.60;;;9.00;99.90;;;;;;4998938;28;20202;-80
2023/01/06 10:19:45;;;;;;;2.00;1.30;;;9.00;99.90;;;;;;4997379;28;20206;-80
2023/01/06 10:22:22;;;;;;;2.17;1.07;;;8.90;99.90;;;;;;4978179;28;20677;-78
2023/01/06 10:24:54;;;;;;;2.30;1.50;;;8.90;99.90;;;;;;4998604;28;20187;-80
2023/01/06 10:27:30;;;;;;;3.03;1.70;;;8.90;99.90;;;;;;4998638;28;20298;-79
2023/01/06 10:29:58;;;;;;;2.20;1.40;;;8.90;99.90;;;;;;4997212;28;20166;-79
2023/01/06 10:32:30;;;;;;;2.80;2.00;;;8.90;99.90;;;;;;4995281;28;20251;-81
2023/01/06 10:34:56;;;;;;;2.37;1.40;;;8.90;99.90;;;;;;4995835;28;20201;-78
2023/01/06 10:37:27;;;;;;;3.57;2.03;;;8.90;99.90;;;;;;4997019;28;20199;-79
2023/01/06 10:40:05;;;;;;;2.43;1.80;;;8.90;99.90;;;;;;4995377;28;20177;-78
2023/01/06 10:43:02;;;;;;;2.10;1.80;;;8.90;99.90;;;;;;4977718;28;20190;-81
2023/01/06 10:45:30;;;;;;;1.50;1.40;;;8.90;99.90;;;;;;4983438;28;20259;-79
2023/01/06 10:47:57;;;;;;;2.10;1.83;;;8.90;99.90;;;;;;4991606;28;20206;-78
2023/01/06 10:50:23;;;;;;;3.30;2.80;;;8.90;99.90;;;;;;4969833;28;20183;-78
2023/01/06 10:52:49;;;;;;;3.50;1.93;;;8.90;99.90;;;;;;4997445;28;20232;-79
2023/01/06 10:55:57;;;;;;;2.80;1.73;;;8.90;99.90;;;;;;4995834;28;20172;-79
2023/01/06 10:58:41;;;;;;;2.10;1.80;;;9.00;99.90;;;;;;4995025;28;20213;-78
2023/01/06 11:01:10;;;;;;;1.60;1.50;;;8.90;99.90;;;;;;4995644;28;20208;-82
2023/01/06 11:03:41;;;;;;;1.90;1.20;;;8.90;99.90;;;;;;4979178;28;20260;-80
2023/01/06 11:06:16;;;;;;;2.13;1.50;;;8.80;99.90;;;;;;4996729;28;20197;-80
2023/01/06 11:08:41;;;;;;;2.93;1.80;;;8.80;99.90;;;;;;4979991;28;20174;-80
2023/01/06 11:11:14;;;;;;;3.73;1.30;;;8.80;99.90;;;;;;4979869;28;20185;-79
2023/01/06 11:13:45;;;;;;;1.57;1.47;;;8.80;99.90;;;;;;4995655;28;20174;-79
2023/01/06 11:16:29;;;;;;;3.60;2.83;;;8.90;99.90;;;;;;4976778;28;20199;-79
2023/01/06 11:19:01;;;;;;;41.03;13.43;;;8.90;99.90;;;;;;4995302;28;20162;-80
2023/01/06 11:21:47;;;;;;;8.70;3.83;;;9.20;99.90;;;;;;4995138;28;20537;-80
2023/01/06 11:24:19;;;;;;;1.80;1.57;;;9.40;99.90;;;;;;4978018;28;20178;-80
2023/01/06 11:27:13;;;;;;;3.03;1.67;;;9.40;99.90;;;;;;4995134;28;20291;-81
2023/01/06 11:29:39;;;;;;;2.93;2.13;;;9.40;99.90;;;;;;4977731;28;20211;-81
2023/01/06 11:32:17;;;;;;;2.40;1.30;;;9.40;99.90;;;;;;4977331;28;20182;-80
2023/01/06 11:34:54;;;;;;;1.40;1.10;;;9.50;99.90;;;;;;4997249;28;20221;-79
2023/01/06 11:37:40;;;;;;;2.33;1.30;;;9.30;99.90;;;;;;4997987;28;20202;-79
2023/01/06 11:40:23;;;;;;;6.67;4.00;;;9.10;99.90;;;;;;4979774;28;20188;-80
2023/01/06 11:42:53;;;;;;;4.40;2.53;;;9.00;99.90;;;;;;4980163;28;20237;-79
2023/01/06 11:45:48;;;;;;;1.80;1.23;;;9.00;99.90;;;;;;4997204;28;20549;-79
2023/01/06 11:48:21;;;;;;;3.47;1.30;;;8.90;99.90;;;;;;4979198;28;20574;-79
2023/01/06 11:50:58;;;;;;;2.20;0.90;;;8.90;99.90;;;;;;4994968;28;20588;-79
2023/01/06 11:53:25;;;;;;;3.83;1.50;;;8.90;99.90;;;;;;4995513;28;20182;-79
2023/01/06 11:56:05;;;;;;;2.30;1.17;;;8.90;99.90;;;;;;4995359;28;20321;-79
2023/01/06 11:58:50;;;;;;;1.33;1.10;;;8.90;99.90;;;;;;4994872;28;20178;-79
2023/01/06 12:01:29;;;;;;;1.67;1.10;;;8.90;99.90;;;;;;4978537;28;20663;-79
2023/01/06 12:04:10;;;;;;;2.13;1.30;;;8.80;99.90;;;;;;4995473;28;20169;-79
2023/01/06 12:06:41;;;;;;;1.37;1.10;;;8.90;99.90;;;;;;4993712;28;20691;-79
2023/01/06 12:09:22;;;;;;;1.23;1.13;;;8.90;99.90;;;;;;4993427;28;20258;-78
2023/01/06 12:11:54;;;;;;;1.60;1.27;;;8.90;99.90;;;;;;4993407;28;20214;-78
2023/01/06 12:14:21;;;;;;;1.43;1.20;;;8.90;99.90;;;;;;4981183;28;20240;-79
2023/01/06 12:16:59;;;;;;;1.63;1.10;;;8.90;99.90;;;;;;4974950;28;20203;-79
2023/01/06 12:19:42;;;;;;;2.37;1.20;;;8.90;99.90;;;;;;4975520;28;20177;-79
2023/01/06 12:22:30;;;;;;;1.30;1.20;;;9.00;99.90;;;;;;4977613;28;20182;-79
2023/01/06 12:24:58;;;;;;;1.70;1.10;;;8.90;99.90;;;;;;4977451;28;20189;-79
2023/01/06 12:27:40;;;;;;;1.90;1.20;;;8.90;99.90;;;;;;4977894;28;20263;-78
2023/01/06 12:30:16;;;;;;;1.80;1.10;;;8.90;99.90;;;;;;4981700;28;20168;-79
2023/01/06 12:32:45;;;;;;;1.60;1.30;;;8.90;99.90;;;;;;4964450;28;20197;-78
2023/01/06 12:35:18;;;;;;;1.30;1.20;;;8.90;99.90;;;;;;4981162;28;20181;-78
2023/01/06 12:37:53;;;;;;;1.30;1.20;;;8.90;99.90;;;;;;4981247;28;20191;-79
2023/01/06 12:40:44;;;;;;;1.87;1.40;;;8.90;99.90;;;;;;4963001;28;20182;-79
2023/01/06 12:43:17;;;;;;;1.50;1.40;;;8.90;99.90;;;;;;4963903;28;20173;-79
2023/01/06 12:45:46;;;;;;;2.33;1.20;;;8.90;99.90;;;;;;4963570;28;20190;-79
2023/01/06 12:48:25;;;;;;;2.37;1.50;;;9.00;99.90;;;;;;4981684;28;20198;-78
2023/01/06 12:50:58;;;;;;;1.53;1.30;;;9.10;99.90;;;;;;5000673;28;20167;-79
2023/01/06 12:53:34;;;;;;;1.30;1.20;;;9.20;99.90;;;;;;5000315;28;20174;-79
2023/01/06 12:58:56;;;;;;;3.23;1.30;;;9.10;99.90;;;;;;5050172;22;20242;-79
2023/01/06 13:01:32;;;;;;;13.70;7.63;;;9.10;99.90;;;;;;5008413;28;20173;-78
2023/01/06 13:04:03;;;;;;;2.67;1.60;;;9.20;99.90;;;;;;5029858;28;20173;-77
2023/01/06 13:07:19;;;;;;;2.03;1.27;;;9.20;99.90;;;;;;5013197;28;20190;-77
2023/01/06 13:10:13;;;;;;;1.23;1.13;;;9.20;99.90;;;;;;4978074;28;20210;-77
2023/01/06 13:13:20;;;;;;;1.83;1.40;;;9.10;99.90;;;;;;5002750;28;20183;-77
2023/01/06 13:15:46;;;;;;;1.40;1.30;;;9.00;99.90;;;;;;4993381;28;20181;-77
2023/01/06 13:18:23;;;;;;;2.87;1.40;;;9.00;99.90;;;;;;5014871;28;20246;-77
2023/01/06 13:20:56;;;;;;;2.53;1.40;;;8.90;99.90;;;;;;4997205;28;20181;-77
2023/01/06 13:23:44;;;;;;;2.23;1.50;;;9.00;99.90;;;;;;5015155;28;20178;-77